createdAt,value
2023-04-24T00:04:48.476Z,2.63
2023-04-24T00:09:46.031Z,3.50
2023-04-24T00:14:48.238Z,2.95
2023-04-24T00:19:51.714Z,3.58
2023-04-24T00:24:54.386Z,3.55
2023-04-24T00:29:58.301Z,2.90
2023-04-24T00:39:57.696Z,3.00
2023-04-24T00:45:01.235Z,2.90
2023-04-24T00:50:08.386Z,3.03
2023-04-24T00:55:08.570Z,2.92
2023-04-24T01:00:13.138Z,2.78
2023-04-24T01:05:13.685Z,2.60
2023-04-24T01:10:14.496Z,3.00
2023-04-24T01:15:14.822Z,2.90
2023-04-24T01:20:14.897Z,3.00
2023-04-24T01:25:15.332Z,2.92
2023-04-24T01:30:14.956Z,2.90
2023-04-24T01:35:15.945Z,3.28
2023-04-24T01:40:14.853Z,3.20
2023-04-24T01:45:15.021Z,3.10
2023-04-24T01:50:14.692Z,3.00
2023-04-24T01:55:14.751Z,3.38
2023-04-24T02:00:15.548Z,3.78
2023-04-24T02:05:15.647Z,2.80
2023-04-24T02:10:17.465Z,3.40
2023-04-24T02:15:17.184Z,3.15
2023-04-24T02:20:18.600Z,3.45
2023-04-24T02:25:18.321Z,3.80
2023-04-24T02:30:17.127Z,3.33
2023-04-24T02:35:29.793Z,3.45
2023-04-24T02:40:29.255Z,2.65
2023-04-24T02:45:32.589Z,3.83
2023-04-24T02:50:32.921Z,4.07
2023-04-24T02:55:32.232Z,3.95
2023-04-24T03:00:29.995Z,3.83
2023-04-24T03:05:35.543Z,3.75
2023-04-24T03:10:36.521Z,4.10
2023-04-24T03:15:36.849Z,4.30
2023-04-24T03:20:35.847Z,4.00
2023-04-24T03:25:37.726Z,3.75
2023-04-24T03:30:37.879Z,4.63
2023-04-24T03:35:43.153Z,4.18
2023-04-24T03:40:44.729Z,3.92
2023-04-24T03:46:16.613Z,5.20
2023-04-24T03:51:47.594Z,4.13
2023-04-24T03:56:52.426Z,4.30
2023-04-24T04:01:51.756Z,4.05
2023-04-24T04:06:52.945Z,3.17
2023-04-24T04:11:52.146Z,3.88
2023-04-24T04:16:51.063Z,4.13
2023-04-24T04:21:57.908Z,3.95
2023-04-24T04:27:07.971Z,3.83
2023-04-24T04:32:16.584Z,4.38
2023-04-24T04:37:17.495Z,6.75
2023-04-24T04:42:31.701Z,5.72
2023-04-24T04:47:33.027Z,5.38
2023-04-24T04:52:34.717Z,6.00
2023-04-24T04:57:48.530Z,6.07
2023-04-24T05:02:48.324Z,5.75
2023-04-24T05:07:47.639Z,4.72
2023-04-24T05:12:46.421Z,4.75
2023-04-24T05:17:44.315Z,4.32
2023-04-24T05:22:49.884Z,5.15
2023-04-24T05:27:52.974Z,4.47
2023-04-24T05:32:57.493Z,5.13
2023-04-24T05:37:58.903Z,5.80
2023-04-24T05:43:00.639Z,6.38
2023-04-24T05:48:10.647Z,6.20
2023-04-24T05:53:22.352Z,5.13
2023-04-24T05:58:22.947Z,5.22
2023-04-24T06:03:26.210Z,4.15
2023-04-24T06:08:27.578Z,3.92
2023-04-24T06:13:30.924Z,5.00
2023-04-24T06:18:48.472Z,3.75
2023-04-24T06:23:50.916Z,3.63
2023-04-24T06:28:52.582Z,3.63
2023-04-24T06:33:57.930Z,3.33
2023-04-24T06:39:05.893Z,3.15
2023-04-24T06:44:09.627Z,2.78
2023-04-24T06:49:21.545Z,4.00
2023-04-24T06:54:20.087Z,2.75
2023-04-24T06:59:21.581Z,3.08
2023-04-24T07:04:20.999Z,3.00
2023-04-24T07:09:25.034Z,3.20
2023-04-24T07:14:22.701Z,2.83
2023-04-24T07:19:21.455Z,2.50
2023-04-24T07:29:35.986Z,3.00
2023-04-24T07:34:36.386Z,2.53
2023-04-24T07:39:38.187Z,2.72
2023-04-24T07:44:48.798Z,2.60
2023-04-24T07:49:49.197Z,2.75
2023-04-24T07:54:49.673Z,3.40
2023-04-24T07:59:50.295Z,2.58
2023-04-24T08:04:47.987Z,3.33
2023-04-24T08:10:12.354Z,3.08
2023-04-24T08:15:14.693Z,3.42
2023-04-24T08:20:16.703Z,3.25
2023-04-24T08:25:21.788Z,3.15
2023-04-24T08:30:21.556Z,2.67
2023-04-24T08:35:24.180Z,2.95
2023-04-24T08:40:30.492Z,2.70
2023-04-24T08:45:43.621Z,2.70
2023-04-24T08:50:46.528Z,3.13
2023-04-24T08:55:49.266Z,3.33
2023-04-24T09:00:50.662Z,2.83
2023-04-24T09:05:53.562Z,2.80
2023-04-24T09:11:06.581Z,2.38
2023-04-24T09:16:10.414Z,2.35
2023-04-24T09:21:34.796Z,2.78
2023-04-24T09:26:40.233Z,2.80
2023-04-24T09:31:46.226Z,2.55
2023-04-24T09:36:46.747Z,3.08
2023-04-24T09:41:53.477Z,2.72
2023-04-24T09:47:00.564Z,2.17
2023-04-24T09:52:09.723Z,2.92
2023-04-24T09:57:10.948Z,2.30
2023-04-24T10:02:21.821Z,2.47
2023-04-24T10:07:20.933Z,2.70
2023-04-24T10:12:23.720Z,1.92
2023-04-24T10:17:23.318Z,2.42
2023-04-24T10:22:28.203Z,1.80
2023-04-24T10:27:31.069Z,2.35
2023-04-24T10:32:34.740Z,2.10
2023-04-24T10:37:58.813Z,1.85
2023-04-24T10:43:17.573Z,2.22
2023-04-24T10:48:31.428Z,2.20
2023-04-24T10:53:36.510Z,2.33
2023-04-24T11:03:59.792Z,2.00
2023-04-24T11:09:15.705Z,1.85
2023-04-24T11:14:24.647Z,1.83
2023-04-24T11:19:34.719Z,2.22
2023-04-24T11:24:56.086Z,2.35
2023-04-24T11:30:12.980Z,2.05
2023-04-24T11:35:24.149Z,2.15
2023-04-24T11:40:27.234Z,2.10
2023-04-24T11:45:32.227Z,2.13
2023-04-24T11:50:31.705Z,2.42
2023-04-24T11:55:34.029Z,2.30
2023-04-24T12:00:36.792Z,2.67
2023-04-24T12:05:43.568Z,2.65
2023-04-24T12:10:44.491Z,2.75
2023-04-24T12:15:44.886Z,3.08
2023-04-24T12:21:01.344Z,3.20
2023-04-24T12:26:02.815Z,2.85
2023-04-24T12:31:07.209Z,3.05
2023-04-24T12:36:15.146Z,3.08
2023-04-24T12:41:33.052Z,3.00
2023-04-24T12:46:46.620Z,2.95
2023-04-24T12:51:49.649Z,2.97
2023-04-24T12:56:52.972Z,3.70
2023-04-24T13:01:56.952Z,2.80
2023-04-24T13:06:55.934Z,3.00
2023-04-24T13:11:56.477Z,2.97
2023-04-24T13:17:01.431Z,2.75
2023-04-24T13:22:04.694Z,2.80
2023-04-24T13:27:13.187Z,3.00
2023-04-24T13:32:15.011Z,2.75
2023-04-24T13:37:19.011Z,2.47
2023-04-24T13:42:19.874Z,3.58
2023-04-24T13:47:24.046Z,3.58
2023-04-24T13:52:29.693Z,2.50
2023-04-24T13:57:29.606Z,3.13
2023-04-24T14:02:32.191Z,2.78
2023-04-24T14:07:37.348Z,2.80
2023-04-24T14:12:39.266Z,2.90
2023-04-24T14:17:40.703Z,2.88
2023-04-24T14:22:46.203Z,2.60
2023-04-24T14:27:44.973Z,3.25
2023-04-24T14:37:58.926Z,2.95
2023-04-24T14:43:00.136Z,3.55
2023-04-24T14:48:01.051Z,3.50
2023-04-24T14:53:11.368Z,2.60
2023-04-24T14:58:10.813Z,2.92
2023-04-24T15:03:36.175Z,3.53
2023-04-24T15:08:40.158Z,2.70
2023-04-24T15:13:40.712Z,3.35
2023-04-24T15:18:54.044Z,2.92
2023-04-24T15:23:52.361Z,2.60
2023-04-24T15:29:00.529Z,2.95
2023-04-24T15:34:02.806Z,3.70
2023-04-24T15:39:06.064Z,3.10
2023-04-24T15:44:05.804Z,3.20
2023-04-24T15:49:23.301Z,3.50
2023-04-24T15:54:26.335Z,3.20
2023-04-24T15:59:24.237Z,4.07
2023-04-24T16:04:22.751Z,3.05
2023-04-24T16:09:22.560Z,3.08
2023-04-24T16:14:30.944Z,3.40
2023-04-24T16:19:41.413Z,2.63
2023-04-24T16:24:43.209Z,2.95
2023-04-24T16:30:05.854Z,2.53
2023-04-24T16:35:06.162Z,3.30
2023-04-24T16:40:19.134Z,3.25
2023-04-24T16:45:26.183Z,3.08
2023-04-24T16:51:07.637Z,3.65
2023-04-24T16:56:12.616Z,3.70
2023-04-24T17:01:14.126Z,4.38
2023-04-24T17:06:12.827Z,3.72
2023-04-24T17:11:14.061Z,4.22
2023-04-24T17:16:14.801Z,4.20
2023-04-24T17:21:17.048Z,4.35
2023-04-24T17:26:18.361Z,4.15
2023-04-24T17:31:27.434Z,4.97
2023-04-24T17:36:30.453Z,4.28
2023-04-24T17:41:30.412Z,3.00
2023-04-24T17:46:27.936Z,3.83
2023-04-24T17:51:36.603Z,3.70
2023-04-24T17:56:38.215Z,3.90
2023-04-24T18:01:35.922Z,3.40
2023-04-24T18:06:35.580Z,2.85
2023-04-24T18:11:35.172Z,3.05
2023-04-24T18:16:34.263Z,3.85
2023-04-24T18:21:36.044Z,3.47
2023-04-24T18:26:34.743Z,4.32
2023-04-24T18:31:37.332Z,3.75
2023-04-24T18:36:37.949Z,3.47
2023-04-24T18:41:41.692Z,3.03
2023-04-24T18:46:41.720Z,3.40
2023-04-24T18:51:54.365Z,3.60
2023-04-24T18:57:12.046Z,3.42
2023-04-24T19:02:23.734Z,4.28
2023-04-24T19:07:24.397Z,4.78
2023-04-24T19:12:36.823Z,3.60
2023-04-24T19:17:36.026Z,3.80
2023-04-24T19:22:36.957Z,4.18
2023-04-24T19:27:42.750Z,3.58
2023-04-24T19:33:19.892Z,4.13
2023-04-24T19:38:24.958Z,3.97
2023-04-24T19:43:35.847Z,4.15
2023-04-24T19:48:42.018Z,3.90
2023-04-24T19:59:03.974Z,3.85
2023-04-24T20:04:19.065Z,5.22
2023-04-24T20:09:19.301Z,5.40
2023-04-24T20:14:37.616Z,3.40
2023-04-24T20:19:43.438Z,4.57
2023-04-24T20:25:05.437Z,7.93
2023-04-24T20:30:25.754Z,4.38
2023-04-24T20:35:31.071Z,5.00
2023-04-24T20:40:55.993Z,3.95
2023-04-24T20:46:08.421Z,3.90
2023-04-24T20:51:08.240Z,2.42
2023-04-24T20:56:18.110Z,3.03
2023-04-24T21:01:18.050Z,2.70
2023-04-24T21:06:19.446Z,2.72
2023-04-24T21:11:21.147Z,3.88
2023-04-24T21:16:23.278Z,3.75
2023-04-24T21:21:25.266Z,4.15
2023-04-24T21:26:24.129Z,4.60
2023-04-24T21:31:27.205Z,5.07
2023-04-24T21:36:26.924Z,4.60
2023-04-24T21:41:31.103Z,6.60
2023-04-24T21:46:30.070Z,4.72
2023-04-24T21:51:28.937Z,4.38
2023-04-24T21:56:31.732Z,4.38
2023-04-24T22:01:30.249Z,4.03
2023-04-24T22:06:39.782Z,3.53
2023-04-24T22:11:42.628Z,3.90
2023-04-24T22:17:00.452Z,4.00
2023-04-24T22:22:04.253Z,3.58
2023-04-24T22:27:06.558Z,3.63
2023-04-24T22:32:05.785Z,3.22
2023-04-24T22:37:09.391Z,3.75
2023-04-24T22:42:09.459Z,2.92
2023-04-24T22:47:09.477Z,3.20
2023-04-24T22:52:11.009Z,3.00
2023-04-24T23:02:21.506Z,3.25
2023-04-24T23:12:31.010Z,3.28
2023-04-24T23:17:44.914Z,3.50
2023-04-24T23:22:53.314Z,4.10
2023-04-24T23:27:59.736Z,3.88
2023-04-24T23:33:04.376Z,3.45
2023-04-24T23:38:15.239Z,3.80
2023-04-24T23:43:16.728Z,3.83
2023-04-24T23:48:17.651Z,4.32
2023-04-24T23:53:19.780Z,3.72
2023-04-24T23:58:22.696Z,3.67
